Aeroporto :
LOGIN :

Iscrizione | Disclaimer

   EN    FR    IT 

 










Sommario :    VFR   VFR Marginale   IFR   IFR Intensivo   IFR Molto Intensivo
Visibilità : 
Base nubi : 
>= 8 km
>= 3000ft
5 / 8 km
1000 / 3000 ft
1500m / 5 km
500 / 1000 ft
800 / 1500m
200 / 500 ft
< 800m
< 200 ft
Simboli :   Temporali  Nebbia  Neve Forte  Precipitazioni Forti  Vento > 20 kt
SIGMETs :   Varie  Temporali  Ghiacco  Turbolenza  Onda orograficha  Ceneri Vulcaniche






- Altitudine del aeroporto : 74 ft
- Codice IATA : EIN


EHEH - Eindhoven

ULTIMO METAR :
  • 201916Z AUTO 08005KT 050V120 3000 R03/2900N BR SCT004/// BKN005/// BKN006/// 02/02 Q1014 YLO 07007KT 3000 BR BKN005 BKN007 TEMPO 2000 BR FEW003 BKN004

METARs OBSOLETI :
  • 201857Z AUTO 08004KT 050V120 2900 R03/2900N BR BKN004/// OVC005/// 03/02 Q1015 YLO 07007KT 3000 BR BKN005 BKN007 TEMPO 2000 BR FEW003 BKN004
  • 201825Z AUTO 08006KT 060V120 2400 R03/2300N BR BKN003/// OVC005/// 02/02 Q1015 YLO 07007KT 3000 BR BKN005 BKN007 TEMPO 2000 BR FEW003 BKN004
  • 201758Z AUTO 06008KT 2200 R03/2100N BR FEW002 BKN003 OVC005 02/02 Q1015 YLO 07007KT 3000 BR BKN005 BKN007 TEMPO 2000 BR FEW003 BKN004
  • 201739Z AUTO 07006KT 2200 R03/2100N BR FEW002 BKN004 BKN005 03/02 Q1015 YLO 08008KT 7000 FEW025 TEMPO 2500 BR FEW003 BKN004 BKN006
  • 201725Z AUTO 07006KT 010V110 2300 R03/2200D BR OVC004 03/02 Q1015 YLO 08008KT 7000 FEW025 TEMPO 2500 BR FEW003 BKN004 BKN006
  • 201712Z AUTO 07007KT 030V090 2500 R03/2400N BR FEW003/// BKN004/// 03/02 Q1015 YLO 08008KT 7000 FEW025 TEMPO 2500 BR SCT004 BKN006
  • 201655Z AUTO 06009KT 030V100 2500 R03/2400N BR FEW005 03/02 Q1015 YLO 08008KT 7000 FEW025 TEMPO 2500 BR SCT005 BKN008
  • 201627Z AUTO 07006KT 020V080 2400 R03/2400N BR NCD 03/02 Q1015 YLO 08008KT 9999 FEW030 TEMPO 2500 BR SCT007 BKN010

TAF TAF EHEH
Valido dal 20 a 18 ore il 22 a 00 ore UTC


201758Z 2018/2124 08007KT 3000 BR FEW003 BKN005
TEMPO 2018/2109 1200 BCFG
PROB40
TEMPO 2020/2108 0400 FG FZFG BKN000
BECMG 2110/2113 8000 NSW FEW010



MetMap, La meteo Aeronautica in un colpo d'occhio ! - Copyright ORBIFLY Dicembre 2007 - Disclaimer

ORBIFLY MET'MAP TEAM :

Programmazione e sviluppo : Alexandra Zaïnal
Concezione e sviluppo : Baudouin d'Aumeries
Co-Programmazione e sviluppo : Marc-Olivier Méhu
Supporto tecnico e logistico : Manuel Goepfert
Aiuto per la traduzione : Arnaldo La Scala

Contatto : metmap@orbifly.com




FONTI E CREDITI :

   NOAA